Time;durP1;ratioP1;P1;durP2;ratioP2;P2;SDS_P1;SDS_P2;PMS_P1;PMS_P2;Temp;Humidity;BMP_temperature;BMP_pressure;BME280_temperature;BME280_humidity;BME280_pressure;Samples;Min_cycle;Max_cycle;Signal;HPM_P1;HPM_P2
2021/05/12 00:00:54;;;;;;;7.23;6.53;;;;;;;;;;5043529;28;20216;-61
2021/05/12 00:03:19;;;;;;;7.00;6.40;;;;;;;;;;5053568;28;20227;-60
2021/05/12 00:05:44;;;;;;;7.53;6.83;;;;;;;;;;5053183;28;20239;-61
2021/05/12 00:08:10;;;;;;;9.73;8.67;;;;;;;;;;5053342;28;20300;-61
2021/05/12 00:10:35;;;;;;;8.40;7.70;;;;;;;;;;5053385;28;20283;-61
2021/05/12 00:13:00;;;;;;;8.00;7.30;;;;;;;;;;5053040;28;20273;-61
2021/05/12 00:15:26;;;;;;;7.73;6.93;;;;;;;;;;5053553;28;20240;-62
2021/05/12 00:17:53;;;;;;;7.67;7.00;;;;;;;;;;5052856;28;20680;-60
2021/05/12 00:20:28;;;;;;;8.20;7.50;;;;;;;;;;5045946;28;20221;-61
2021/05/12 00:22:59;;;;;;;8.53;7.83;;;;;;;;;;5054878;28;20447;-61
2021/05/12 00:25:25;;;;;;;9.57;8.87;;;;;;;;;;5057089;28;20457;-61
2021/05/12 00:27:50;;;;;;;8.60;7.80;;;;;;;;;;5045479;28;20801;-61
2021/05/12 00:30:18;;;;;;;9.03;8.17;;;;;;;;;;5036863;28;20222;-61
2021/05/12 00:32:45;;;;;;;10.20;9.40;;;;;;;;;;5036595;28;20646;-62
2021/05/12 00:35:12;;;;;;;9.90;9.00;;;;;;;;;;5037639;28;20472;-61
2021/05/12 00:37:38;;;;;;;10.83;9.93;;;;;;;;;;5055708;28;20791;-61
2021/05/12 00:40:05;;;;;;;10.13;9.07;;;;;;;;;;5056076;28;20444;-61
2021/05/12 00:42:31;;;;;;;9.93;8.97;;;;;;;;;;5056610;28;20459;-61
2021/05/12 00:44:58;;;;;;;10.03;9.07;;;;;;;;;;5056081;28;20459;-59
2021/05/12 00:47:28;;;;;;;13.03;11.87;;;;;;;;;;5055459;28;20463;-61
2021/05/12 00:49:54;;;;;;;12.13;11.07;;;;;;;;;;5056083;28;20466;-61
2021/05/12 00:52:19;;;;;;;13.53;12.27;;;;;;;;;;5056307;28;20467;-62
2021/05/12 00:54:45;;;;;;;14.93;13.60;;;;;;;;;;5056044;28;20213;-60
2021/05/12 00:57:10;;;;;;;14.60;13.30;;;;;;;;;;5038553;28;20231;-60
2021/05/12 00:59:36;;;;;;;13.77;12.53;;;;;;;;;;5055122;28;20216;-60
2021/05/12 01:02:02;;;;;;;12.47;11.37;;;;;;;;;;5052380;28;20228;-62
2021/05/12 01:04:27;;;;;;;12.43;11.17;;;;;;;;;;5055314;28;20688;-62
2021/05/12 01:06:53;;;;;;;14.87;13.57;;;;;;;;;;5047219;28;20480;-63
2021/05/12 01:09:18;;;;;;;16.43;14.10;;;;;;;;;;5054444;28;20233;-61
2021/05/12 01:11:44;;;;;;;13.63;11.57;;;;;;;;;;5054208;28;20228;-62
2021/05/12 01:14:09;;;;;;;11.77;10.63;;;;;;;;;;5055662;28;20217;-62
2021/05/12 01:16:35;;;;;;;11.00;9.90;;;;;;;;;;5055909;28;20644;-62
2021/05/12 01:19:00;;;;;;;10.80;9.80;;;;;;;;;;5052844;28;20225;-62
2021/05/12 01:21:25;;;;;;;9.27;8.43;;;;;;;;;;5040701;28;20614;-61
2021/05/12 01:23:51;;;;;;;11.03;9.87;;;;;;;;;;5044696;28;20224;-62
2021/05/12 01:26:19;;;;;;;9.20;8.40;;;;;;;;;;5047683;28;20303;-62
2021/05/12 01:28:46;;;;;;;9.73;8.73;;;;;;;;;;5054976;28;20621;-61
2021/05/12 01:31:17;;;;;;;8.97;8.07;;;;;;;;;;5054432;28;20448;-61
2021/05/12 01:33:44;;;;;;;11.20;9.73;;;;;;;;;;5054473;28;20463;-62
2021/05/12 01:36:10;;;;;;;10.50;9.53;;;;;;;;;;5052154;28;20496;-62
2021/05/12 01:38:37;;;;;;;11.27;10.23;;;;;;;;;;5053713;28;20561;-63
2021/05/12 01:41:04;;;;;;;10.10;8.80;;;;;;;;;;5055031;28;20935;-62
2021/05/12 01:43:30;;;;;;;8.73;7.90;;;;;;;;;;5054199;28;20469;-62
2021/05/12 01:45:56;;;;;;;9.30;8.50;;;;;;;;;;5054868;28;20467;-63
2021/05/12 01:48:21;;;;;;;8.73;7.90;;;;;;;;;;5055090;28;20489;-62
2021/05/12 01:50:47;;;;;;;9.60;8.00;;;;;;;;;;5053707;28;20255;-62
2021/05/12 01:53:14;;;;;;;8.10;7.30;;;;;;;;;;5054980;28;20236;-62
2021/05/12 01:55:39;;;;;;;10.33;9.33;;;;;;;;;;5054245;28;20224;-62
2021/05/12 01:58:05;;;;;;;10.80;8.37;;;;;;;;;;5054329;28;20478;-63
2021/05/12 02:00:34;;;;;;;9.70;8.80;;;;;;;;;;5053331;28;20286;-63
2021/05/12 02:03:00;;;;;;;8.73;7.93;;;;;;;;;;5047227;28;20939;-64
2021/05/12 02:05:26;;;;;;;10.90;8.33;;;;;;;;;;5055017;28;20545;-63
2021/05/12 02:07:53;;;;;;;9.63;8.10;;;;;;;;;;5053439;28;20306;-61
2021/05/12 02:10:19;;;;;;;8.33;7.27;;;;;;;;;;5053479;28;20527;-62
2021/05/12 02:12:45;;;;;;;9.93;9.00;;;;;;;;;;5053448;28;20541;-61
2021/05/12 02:15:11;;;;;;;7.37;6.70;;;;;;;;;;5054469;28;20883;-62
2021/05/12 02:17:37;;;;;;;9.63;8.73;;;;;;;;;;5054598;28;20285;-63
2021/05/12 02:20:04;;;;;;;7.90;7.10;;;;;;;;;;5054100;28;20540;-62
2021/05/12 02:22:30;;;;;;;10.10;8.03;;;;;;;;;;5054658;28;20224;-63
2021/05/12 02:24:55;;;;;;;8.50;7.00;;;;;;;;;;5054142;28;20459;-63
2021/05/12 02:27:20;;;;;;;8.43;7.63;;;;;;;;;;5054267;28;20239;-62
2021/05/12 02:29:45;;;;;;;9.70;7.80;;;;;;;;;;5054233;28;20311;-62
2021/05/12 02:32:11;;;;;;;8.90;8.10;;;;;;;;;;5053447;28;20625;-62
2021/05/12 02:34:36;;;;;;;9.50;7.80;;;;;;;;;;5054124;28;20247;-62
2021/05/12 02:37:01;;;;;;;8.77;7.87;;;;;;;;;;5052402;28;20557;-64
2021/05/12 02:39:28;;;;;;;8.80;8.10;;;;;;;;;;5053045;28;20549;-62
2021/05/12 02:41:54;;;;;;;9.40;8.60;;;;;;;;;;5053773;28;20224;-61
2021/05/12 02:44:19;;;;;;;8.63;7.87;;;;;;;;;;5053926;28;20477;-61
2021/05/12 02:46:44;;;;;;;8.67;7.97;;;;;;;;;;5054268;28;20522;-62
2021/05/12 02:49:09;;;;;;;8.73;7.93;;;;;;;;;;5053591;28;20686;-61
2021/05/12 02:51:35;;;;;;;8.30;7.50;;;;;;;;;;5053977;28;20264;-62
2021/05/12 02:54:00;;;;;;;9.80;8.00;;;;;;;;;;5053686;28;20564;-62
2021/05/12 02:56:28;;;;;;;9.93;8.13;;;;;;;;;;5053984;28;20238;-61
2021/05/12 02:58:53;;;;;;;8.50;7.70;;;;;;;;;;5053730;28;20221;-62
2021/05/12 03:01:18;;;;;;;8.50;7.40;;;;;;;;;;5053787;28;20688;-62
2021/05/12 03:03:44;;;;;;;10.63;8.23;;;;;;;;;;5046661;28;20215;-62
2021/05/12 03:06:10;;;;;;;9.23;7.43;;;;;;;;;;5047115;28;20323;-63
2021/05/12 03:08:35;;;;;;;7.17;6.53;;;;;;;;;;5052628;28;20239;-62
2021/05/12 03:11:01;;;;;;;8.87;6.80;;;;;;;;;;5053250;28;20456;-62
2021/05/12 03:13:26;;;;;;;7.90;6.87;;;;;;;;;;5053867;28;20680;-61
2021/05/12 03:15:51;;;;;;;7.73;7.03;;;;;;;;;;5052321;28;20220;-62
2021/05/12 03:18:17;;;;;;;10.10;6.30;;;;;;;;;;5053721;28;20324;-62
2021/05/12 03:20:42;;;;;;;8.07;7.27;;;;;;;;;;5053967;28;20228;-62
2021/05/12 03:23:07;;;;;;;9.37;6.57;;;;;;;;;;5052342;28;20672;-62
2021/05/12 03:25:33;;;;;;;7.83;6.60;;;;;;;;;;5032218;28;20214;-62
2021/05/12 03:27:58;;;;;;;13.20;12.00;;;;;;;;;;5051191;28;20225;-59
2021/05/12 03:30:27;;;;;;;11.83;10.63;;;;;;;;;;5053579;28;20275;-60
2021/05/12 03:32:57;;;;;;;8.30;7.60;;;;;;;;;;5053022;28;20357;-62
2021/05/12 03:35:22;;;;;;;10.67;8.50;;;;;;;;;;5052442;28;20471;-59
2021/05/12 03:37:48;;;;;;;7.67;6.87;;;;;;;;;;5053351;28;20788;-59
2021/05/12 03:40:14;;;;;;;13.37;11.97;;;;;;;;;;5053201;28;20224;-59
2021/05/12 03:42:39;;;;;;;17.10;14.40;;;;;;;;;;5053438;28;20255;-58
2021/05/12 03:45:05;;;;;;;13.07;11.17;;;;;;;;;;5053254;28;20941;-60
2021/05/12 03:47:31;;;;;;;18.50;15.33;;;;;;;;;;5053560;28;20227;-59
2021/05/12 03:49:56;;;;;;;9.03;8.13;;;;;;;;;;5052847;28;20483;-60
2021/05/12 03:52:22;;;;;;;14.60;13.07;;;;;;;;;;5052303;28;20284;-60
2021/05/12 03:54:50;;;;;;;11.90;10.63;;;;;;;;;;5053511;28;20299;-60
2021/05/12 03:57:15;;;;;;;13.67;12.30;;;;;;;;;;5056785;28;20239;-60
2021/05/12 03:59:41;;;;;;;12.87;10.20;;;;;;;;;;5057492;28;20779;-59
2021/05/12 04:02:06;;;;;;;16.93;14.63;;;;;;;;;;5056739;28;20215;-60
2021/05/12 04:04:31;;;;;;;9.10;8.17;;;;;;;;;;5043651;28;20221;-60
2021/05/12 04:06:56;;;;;;;17.20;13.53;;;;;;;;;;5058583;28;20304;-59
2021/05/12 04:09:22;;;;;;;18.60;14.27;;;;;;;;;;5056533;28;20236;-59
2021/05/12 04:11:48;;;;;;;12.87;10.57;;;;;;;;;;5056831;28;20381;-59
2021/05/12 04:14:13;;;;;;;15.63;11.03;;;;;;;;;;5056582;28;20225;-59
2021/05/12 04:16:38;;;;;;;16.60;10.53;;;;;;;;;;5057093;28;20481;-60
2021/05/12 04:19:04;;;;;;;9.43;8.50;;;;;;;;;;5056663;28;20602;-59
2021/05/12 04:21:30;;;;;;;8.73;7.53;;;;;;;;;;5043683;28;20296;-59
2021/05/12 04:23:56;;;;;;;15.73;10.73;;;;;;;;;;5063084;28;20588;-60
2021/05/12 04:26:21;;;;;;;7.67;5.27;;;;;;;;;;5055721;28;20547;-59
2021/05/12 04:28:46;;;;;;;5.93;5.43;;;;;;;;;;5056740;28;20223;-60
2021/05/12 04:31:12;;;;;;;12.50;8.53;;;;;;;;;;5056197;28;20282;-60
2021/05/12 04:33:37;;;;;;;8.93;7.30;;;;;;;;;;5056776;28;20269;-60
2021/05/12 04:36:03;;;;;;;8.67;7.70;;;;;;;;;;5055881;28;20535;-59
2021/05/12 04:38:28;;;;;;;6.93;6.20;;;;;;;;;;5056383;28;20676;-59
2021/05/12 04:40:54;;;;;;;9.40;6.80;;;;;;;;;;5050795;28;20544;-60
2021/05/12 04:43:19;;;;;;;12.67;7.17;;;;;;;;;;5048509;28;20228;-60
2021/05/12 04:45:44;;;;;;;9.60;7.67;;;;;;;;;;5056431;28;20292;-59
2021/05/12 04:48:10;;;;;;;11.23;7.83;;;;;;;;;;5056042;28;20724;-60
2021/05/12 04:50:35;;;;;;;11.80;5.70;;;;;;;;;;5056205;28;20239;-59
2021/05/12 04:53:01;;;;;;;8.77;7.03;;;;;;;;;;5055054;28;20221;-59
2021/05/12 04:55:26;;;;;;;5.47;4.90;;;;;;;;;;5056088;28;20613;-59
2021/05/12 04:57:52;;;;;;;6.60;5.70;;;;;;;;;;5056140;28;20232;-59
2021/05/12 05:00:20;;;;;;;8.87;6.60;;;;;;;;;;5055589;28;20235;-59
2021/05/12 05:02:45;;;;;;;6.53;5.90;;;;;;;;;;5056181;28;20221;-59
2021/05/12 05:05:12;;;;;;;6.57;6.07;;;;;;;;;;5041791;28;20805;-60
2021/05/12 05:07:38;;;;;;;7.40;6.67;;;;;;;;;;5054798;28;20639;-59
2021/05/12 05:10:04;;;;;;;10.60;5.97;;;;;;;;;;5054207;28;20505;-59
2021/05/12 05:12:30;;;;;;;7.03;5.97;;;;;;;;;;5055897;28;20221;-60
2021/05/12 05:14:55;;;;;;;7.37;6.63;;;;;;;;;;5050827;28;20532;-59
2021/05/12 05:17:21;;;;;;;8.33;5.80;;;;;;;;;;5047443;28;20221;-59
2021/05/12 05:19:46;;;;;;;8.40;5.50;;;;;;;;;;5055799;28;20239;-59
2021/05/12 05:22:14;;;;;;;6.47;5.70;;;;;;;;;;5055318;28;20224;-60
2021/05/12 05:24:39;;;;;;;8.17;5.13;;;;;;;;;;5054732;28;20238;-59
2021/05/12 05:27:05;;;;;;;5.10;4.60;;;;;;;;;;5054973;28;20537;-61
2021/05/12 05:29:30;;;;;;;5.93;4.80;;;;;;;;;;5055398;28;20307;-59
2021/05/12 05:31:55;;;;;;;9.90;5.70;;;;;;;;;;5055808;28;20217;-59
2021/05/12 05:34:20;;;;;;;7.00;5.37;;;;;;;;;;5054008;28;20921;-59
2021/05/12 05:36:46;;;;;;;6.67;5.63;;;;;;;;;;5055509;28;20303;-60
2021/05/12 05:39:11;;;;;;;5.33;4.83;;;;;;;;;;5052050;28;20227;-60
2021/05/12 05:41:36;;;;;;;6.60;5.10;;;;;;;;;;5055526;28;20292;-60
2021/05/12 05:44:02;;;;;;;6.90;5.97;;;;;;;;;;5054845;28;20250;-60
2021/05/12 05:46:28;;;;;;;5.57;5.07;;;;;;;;;;5054084;28;20220;-62
2021/05/12 05:48:53;;;;;;;5.73;5.03;;;;;;;;;;5055029;28;20947;-60
2021/05/12 05:51:18;;;;;;;5.90;5.30;;;;;;;;;;5054791;28;20284;-59
2021/05/12 05:53:43;;;;;;;6.27;5.67;;;;;;;;;;5055149;28;20213;-60
2021/05/12 05:56:09;;;;;;;7.80;5.60;;;;;;;;;;5054856;28;20548;-60
2021/05/12 05:58:34;;;;;;;6.70;6.10;;;;;;;;;;5054854;28;20307;-59
2021/05/12 06:00:59;;;;;;;5.43;5.00;;;;;;;;;;5055004;28;20210;-59
2021/05/12 06:03:24;;;;;;;9.63;5.43;;;;;;;;;;5049698;28;21665;-60
2021/05/12 06:05:50;;;;;;;6.03;5.43;;;;;;;;;;5046070;28;20235;-60
2021/05/12 06:08:15;;;;;;;7.40;5.90;;;;;;;;;;5054154;28;20575;-59
2021/05/12 06:10:41;;;;;;;8.10;5.53;;;;;;;;;;5054621;28;20283;-60
2021/05/12 06:13:06;;;;;;;5.67;5.17;;;;;;;;;;5052837;28;20308;-60
2021/05/12 06:15:31;;;;;;;6.30;5.20;;;;;;;;;;5043829;28;20243;-60
2021/05/12 06:17:56;;;;;;;5.13;4.63;;;;;;;;;;5054008;28;20357;-59
2021/05/12 06:20:22;;;;;;;6.50;5.10;;;;;;;;;;5054187;28;20220;-59
2021/05/12 06:22:47;;;;;;;6.73;6.03;;;;;;;;;;5054544;28;20251;-59
2021/05/12 06:25:13;;;;;;;5.90;5.40;;;;;;;;;;5054027;28;20228;-59
2021/05/12 06:27:38;;;;;;;5.60;4.97;;;;;;;;;;5054092;28;20224;-60
2021/05/12 06:30:08;;;;;;;6.17;5.50;;;;;;;;;;5053925;28;20476;-61
2021/05/12 06:32:33;;;;;;;6.03;5.47;;;;;;;;;;5054256;28;20213;-60
2021/05/12 06:34:58;;;;;;;6.10;5.50;;;;;;;;;;5054203;28;20827;-60
2021/05/12 06:37:23;;;;;;;7.70;7.00;;;;;;;;;;5051244;28;20307;-60
2021/05/12 06:39:52;;;;;;;6.80;6.10;;;;;;;;;;5053456;28;20675;-60
2021/05/12 06:42:18;;;;;;;7.40;6.50;;;;;;;;;;5053900;28;20254;-60
2021/05/12 06:44:43;;;;;;;9.30;8.00;;;;;;;;;;5054097;28;20512;-61
2021/05/12 06:47:08;;;;;;;10.10;7.60;;;;;;;;;;5053113;28;20950;-60
2021/05/12 06:49:34;;;;;;;9.93;7.53;;;;;;;;;;5053718;28;20370;-63
2021/05/12 06:51:59;;;;;;;7.53;6.83;;;;;;;;;;5036232;28;20304;-59
2021/05/12 06:54:24;;;;;;;7.60;7.00;;;;;;;;;;5053640;28;20221;-60
2021/05/12 06:56:50;;;;;;;6.67;6.07;;;;;;;;;;5053903;28;20227;-60
2021/05/12 06:59:15;;;;;;;6.73;6.13;;;;;;;;;;5053448;28;20206;-63
2021/05/12 07:01:40;;;;;;;8.50;6.30;;;;;;;;;;5053764;28;20230;-59
2021/05/12 07:04:06;;;;;;;7.37;6.37;;;;;;;;;;5043338;28;20607;-60
2021/05/12 07:06:31;;;;;;;8.30;6.70;;;;;;;;;;5050509;28;20217;-60
2021/05/12 07:08:56;;;;;;;9.83;7.10;;;;;;;;;;5052848;28;20220;-60
2021/05/12 07:11:23;;;;;;;7.83;6.90;;;;;;;;;;5052609;28;20740;-58
2021/05/12 07:13:50;;;;;;;7.50;6.83;;;;;;;;;;5053794;28;20296;-59
2021/05/12 07:16:16;;;;;;;7.97;6.30;;;;;;;;;;5039937;28;20467;-61
2021/05/12 07:18:42;;;;;;;8.90;7.17;;;;;;;;;;5053523;28;20467;-59
2021/05/12 07:21:07;;;;;;;8.03;7.00;;;;;;;;;;5053063;28;20303;-60
2021/05/12 07:23:32;;;;;;;9.07;8.17;;;;;;;;;;5053538;28;20561;-59
2021/05/12 07:25:58;;;;;;;9.57;7.87;;;;;;;;;;5052430;28;20233;-60
2021/05/12 07:28:24;;;;;;;8.67;7.87;;;;;;;;;;5052689;28;20235;-60
2021/05/12 07:30:50;;;;;;;8.30;7.50;;;;;;;;;;5054960;28;20307;-59
2021/05/12 07:33:15;;;;;;;9.27;8.37;;;;;;;;;;5057356;28;20493;-60
2021/05/12 07:35:40;;;;;;;8.67;7.87;;;;;;;;;;5057531;28;20546;-59
2021/05/12 07:38:06;;;;;;;9.30;8.40;;;;;;;;;;5055171;28;20241;-60
2021/05/12 07:40:33;;;;;;;7.90;7.20;;;;;;;;;;5057150;28;20232;-60
2021/05/12 07:43:00;;;;;;;8.53;7.83;;;;;;;;;;5057536;28;20216;-60
2021/05/12 07:45:25;;;;;;;8.37;7.50;;;;;;;;;;5056934;28;20466;-60
2021/05/12 07:47:51;;;;;;;8.30;7.50;;;;;;;;;;5057452;28;20497;-60
2021/05/12 07:50:16;;;;;;;7.57;6.77;;;;;;;;;;5051409;28;20240;-60
2021/05/12 07:52:42;;;;;;;10.40;8.27;;;;;;;;;;5057450;28;20549;-59
2021/05/12 07:55:08;;;;;;;10.37;9.27;;;;;;;;;;5056202;28;20239;-60
2021/05/12 07:57:33;;;;;;;9.10;8.00;;;;;;;;;;5056959;28;20228;-59
2021/05/12 07:59:58;;;;;;;9.87;8.53;;;;;;;;;;5056820;28;20929;-60
2021/05/12 08:02:24;;;;;;;12.53;11.37;;;;;;;;;;5056580;28;20225;-60
2021/05/12 08:04:49;;;;;;;9.97;9.03;;;;;;;;;;5042150;28;20225;-60
2021/05/12 08:07:14;;;;;;;10.50;8.90;;;;;;;;;;5056372;28;20240;-60
2021/05/12 08:09:39;;;;;;;11.53;9.97;;;;;;;;;;5056736;28;20305;-60
2021/05/12 08:12:05;;;;;;;10.93;9.83;;;;;;;;;;5056939;28;20220;-59
2021/05/12 08:14:31;;;;;;;12.10;10.80;;;;;;;;;;5056312;28;20231;-60
2021/05/12 08:16:56;;;;;;;13.17;11.77;;;;;;;;;;5056803;28;20467;-60
2021/05/12 08:19:21;;;;;;;11.90;10.70;;;;;;;;;;5056412;28;20310;-59
2021/05/12 08:21:50;;;;;;;13.20;11.80;;;;;;;;;;5056814;28;20293;-60
2021/05/12 08:24:15;;;;;;;11.47;10.37;;;;;;;;;;5056253;28;20228;-59
2021/05/12 08:26:40;;;;;;;13.77;10.23;;;;;;;;;;5056512;28;20529;-60
2021/05/12 08:29:07;;;;;;;10.83;9.47;;;;;;;;;;5056367;28;20676;-60
2021/05/12 08:31:33;;;;;;;12.97;11.57;;;;;;;;;;5053140;28;20224;-59
2021/05/12 08:34:00;;;;;;;11.67;10.47;;;;;;;;;;5053561;28;20467;-60
2021/05/12 08:36:26;;;;;;;12.23;11.03;;;;;;;;;;5045018;28;20474;-60
2021/05/12 08:38:51;;;;;;;13.10;11.97;;;;;;;;;;5055307;28;20527;-59
2021/05/12 08:41:19;;;;;;;15.60;13.20;;;;;;;;;;5055501;28;20558;-60
2021/05/12 08:43:45;;;;;;;11.93;10.70;;;;;;;;;;5056258;28;20225;-60
2021/05/12 08:46:13;;;;;;;15.37;12.87;;;;;;;;;;5053169;28;20498;-59
2021/05/12 08:48:40;;;;;;;14.90;13.40;;;;;;;;;;5041580;28;20747;-60
2021/05/12 08:51:10;;;;;;;14.90;13.40;;;;;;;;;;5056140;28;20472;-59
2021/05/12 08:53:35;;;;;;;14.83;12.23;;;;;;;;;;5054375;28;20470;-59
2021/05/12 08:56:02;;;;;;;16.03;12.90;;;;;;;;;;5046571;28;20534;-59
2021/05/12 08:58:28;;;;;;;16.33;14.60;;;;;;;;;;5044576;28;20320;-60
2021/05/12 09:00:54;;;;;;;16.13;14.17;;;;;;;;;;5056209;28;20840;-60
2021/05/12 09:03:19;;;;;;;17.03;13.90;;;;;;;;;;5049012;28;20582;-61
2021/05/12 09:05:44;;;;;;;18.20;14.23;;;;;;;;;;5052221;28;20213;-60
2021/05/12 09:08:10;;;;;;;16.90;13.80;;;;;;;;;;5055108;28;20233;-60
2021/05/12 09:10:35;;;;;;;17.07;15.27;;;;;;;;;;5052413;28;20722;-60
2021/05/12 09:13:00;;;;;;;17.07;14.67;;;;;;;;;;5052685;28;20235;-60
2021/05/12 09:15:27;;;;;;;17.80;14.40;;;;;;;;;;5055369;28;20663;-60
2021/05/12 09:17:54;;;;;;;16.30;14.70;;;;;;;;;;5055717;28;20300;-60
2021/05/12 09:20:19;;;;;;;19.13;15.20;;;;;;;;;;5055159;28;20464;-60
2021/05/12 09:22:49;;;;;;;18.57;15.17;;;;;;;;;;5055554;28;20460;-59
2021/05/12 09:25:18;;;;;;;16.70;14.43;;;;;;;;;;5055355;28;20278;-60
2021/05/12 09:27:46;;;;;;;16.50;14.10;;;;;;;;;;5052209;28;20468;-60
2021/05/12 09:30:19;;;;;;;17.83;15.97;;;;;;;;;;5051784;28;20808;-59
2021/05/12 09:32:44;;;;;;;18.57;15.07;;;;;;;;;;5055329;28;20466;-60
2021/05/12 09:35:10;;;;;;;18.57;15.97;;;;;;;;;;5054242;28;20471;-61
2021/05/12 09:37:37;;;;;;;19.30;14.90;;;;;;;;;;5049950;28;20221;-59
2021/05/12 09:40:06;;;;;;;15.77;14.20;;;;;;;;;;5048865;28;20221;-60
2021/05/12 09:42:32;;;;;;;18.40;14.57;;;;;;;;;;5054852;28;20494;-60
2021/05/12 09:45:21;;;;;;;18.27;15.70;;;;;;;;;;5055234;28;20486;-59
2021/05/12 09:47:49;;;;;;;16.70;14.97;;;;;;;;;;5050860;28;20710;-60
2021/05/12 09:50:25;;;;;;;15.97;14.37;;;;;;;;;;5061702;28;20478;-59
2021/05/12 09:52:57;;;;;;;18.67;16.57;;;;;;;;;;5064755;28;20616;-60
2021/05/12 09:55:46;;;;;;;23.00;17.27;;;;;;;;;;5068601;28;20938;-60
2021/05/12 09:58:15;;;;;;;16.60;14.80;;;;;;;;;;5059200;28;20468;-59
2021/05/12 10:00:42;;;;;;;16.00;14.40;;;;;;;;;;5043396;28;20467;-60
2021/05/12 10:03:10;;;;;;;20.70;16.13;;;;;;;;;;5051985;28;20471;-61
2021/05/12 10:05:54;;;;;;;20.80;17.03;;;;;;;;;;5051823;28;20497;-60
2021/05/12 10:08:30;;;;;;;16.73;14.93;;;;;;;;;;5060952;28;20628;-60
2021/05/12 10:11:03;;;;;;;16.83;15.23;;;;;;;;;;5069955;28;20515;-60
2021/05/12 10:13:33;;;;;;;17.17;15.13;;;;;;;;;;5048733;28;20443;-60
2021/05/12 10:15:59;;;;;;;20.10;16.87;;;;;;;;;;5061065;28;20456;-60
2021/05/12 10:18:24;;;;;;;17.80;15.90;;;;;;;;;;5066193;28;20474;-60
2021/05/12 10:20:53;;;;;;;19.03;15.60;;;;;;;;;;5068059;28;20462;-60
2021/05/12 10:23:19;;;;;;;18.40;15.80;;;;;;;;;;5062376;28;20649;-60
2021/05/12 10:25:44;;;;;;;19.00;17.00;;;;;;;;;;5059835;28;20549;-60
2021/05/12 10:28:09;;;;;;;22.13;16.63;;;;;;;;;;5040944;28;20233;-61
2021/05/12 10:30:35;;;;;;;19.57;17.40;;;;;;;;;;5066848;28;20240;-60
2021/05/12 10:33:01;;;;;;;20.30;18.17;;;;;;;;;;5059990;28;20224;-59
2021/05/12 10:35:33;;;;;;;18.30;16.33;;;;;;;;;;5059741;28;20225;-60
2021/05/12 10:37:59;;;;;;;19.43;16.03;;;;;;;;;;5050824;28;20304;-60
2021/05/12 10:40:27;;;;;;;23.60;19.70;;;;;;;;;;5066273;28;20488;-59
2021/05/12 10:46:00;;;;;;;22.17;17.43;;;;;;;;;;5060274;28;20938;-60
2021/05/12 10:48:31;;;;;;;21.07;17.60;;;;;;;;;;5060861;28;20557;-60
2021/05/12 10:50:57;;;;;;;19.63;16.80;;;;;;;;;;5047638;28;20472;-60
2021/05/12 10:53:24;;;;;;;20.50;18.40;;;;;;;;;;5060042;28;20468;-60
2021/05/12 10:55:55;;;;;;;24.13;18.77;;;;;;;;;;5067296;28;20456;-60
2021/05/12 10:58:20;;;;;;;25.17;20.10;;;;;;;;;;5066886;28;20466;-59
2021/05/12 11:00:56;;;;;;;17.57;15.77;;;;;;;;;;5053925;28;20759;-59
2021/05/12 11:03:22;;;;;;;20.40;18.00;;;;;;;;;;5055463;28;20225;-60
2021/05/12 11:05:50;;;;;;;21.40;18.40;;;;;;;;;;5055464;28;20804;-59
2021/05/12 11:08:17;;;;;;;26.20;19.63;;;;;;;;;;5059851;28;20953;-60
2021/05/12 11:11:03;;;;;;;19.50;17.43;;;;;;;;;;5072712;28;20545;-60
2021/05/12 11:13:30;;;;;;;18.63;16.33;;;;;;;;;;5059784;28;20953;-60
2021/05/12 11:15:58;;;;;;;19.80;17.20;;;;;;;;;;5060612;28;20855;-60
2021/05/12 11:18:35;;;;;;;19.20;16.20;;;;;;;;;;5046882;28;20938;-59
2021/05/12 11:21:28;;;;;;;16.00;14.10;;;;;;;;;;5060158;28;20482;-60
2021/05/12 11:24:06;;;;;;;19.67;15.27;;;;;;;;;;5061347;28;20525;-59
2021/05/12 11:32:09;;;;;;;19.07;17.10;;;;;;;;;;5043934;28;20856;-60
2021/05/12 11:34:35;;;;;;;18.47;15.27;;;;;;;;;;5048995;28;20252;-59
2021/05/12 11:37:10;;;;;;;18.67;16.77;;;;;;;;;;5060516;28;20539;-59
2021/05/12 11:39:35;;;;;;;20.77;15.27;;;;;;;;;;5046923;28;20785;-61
2021/05/12 11:42:01;;;;;;;22.70;17.40;;;;;;;;;;5066894;28;20459;-59
2021/05/12 11:44:26;;;;;;;18.27;16.47;;;;;;;;;;5060611;28;20217;-59
2021/05/12 11:46:52;;;;;;;24.00;16.40;;;;;;;;;;5071201;28;20285;-60
2021/05/12 11:49:19;;;;;;;17.80;16.00;;;;;;;;;;5058850;28;20263;-59
2021/05/12 11:51:49;;;;;;;18.53;15.50;;;;;;;;;;5059321;28;20726;-60
2021/05/12 11:54:21;;;;;;;18.03;16.33;;;;;;;;;;5066889;28;20456;-59
2021/05/12 11:56:50;;;;;;;18.23;16.47;;;;;;;;;;5066422;28;20482;-60
2021/05/12 11:59:19;;;;;;;18.77;16.73;;;;;;;;;;5061210;28;20474;-59
2021/05/12 12:01:47;;;;;;;16.97;15.30;;;;;;;;;;5063166;28;20470;-60
2021/05/12 12:04:27;;;;;;;17.17;15.37;;;;;;;;;;5051025;28;20464;-61
2021/05/12 12:06:53;;;;;;;18.40;16.60;;;;;;;;;;5066082;28;20463;-60
2021/05/12 12:09:19;;;;;;;20.03;17.90;;;;;;;;;;5066313;28;20493;-60
2021/05/12 12:11:45;;;;;;;18.93;16.93;;;;;;;;;;5061868;28;20509;-60
2021/05/12 12:14:11;;;;;;;17.13;15.43;;;;;;;;;;5066338;28;20466;-60
2021/05/12 12:16:38;;;;;;;17.50;15.97;;;;;;;;;;5040368;28;20300;-60
2021/05/12 12:19:10;;;;;;;16.17;14.67;;;;;;;;;;5070060;28;20529;-59
2021/05/12 12:21:35;;;;;;;18.30;16.43;;;;;;;;;;5051158;28;20854;-60
2021/05/12 12:24:09;;;;;;;15.70;14.20;;;;;;;;;;5058995;28;20556;-59
2021/05/12 12:26:36;;;;;;;14.60;13.20;;;;;;;;;;5068629;28;20247;-59
2021/05/12 12:29:05;;;;;;;13.40;12.10;;;;;;;;;;5068906;28;20458;-60
2021/05/12 12:31:43;;;;;;;14.30;12.83;;;;;;;;;;5065080;28;20944;-60
2021/05/12 12:34:20;;;;;;;15.00;13.50;;;;;;;;;;5063014;28;20457;-60
2021/05/12 12:36:51;;;;;;;14.57;13.07;;;;;;;;;;5070981;28;20459;-61
2021/05/12 12:39:16;;;;;;;14.67;13.27;;;;;;;;;;5068499;28;20476;-59
2021/05/12 12:41:47;;;;;;;15.37;13.77;;;;;;;;;;5063554;28;20460;-59
2021/05/12 12:44:12;;;;;;;15.67;14.17;;;;;;;;;;5069147;28;20214;-60
2021/05/12 12:46:38;;;;;;;17.30;14.37;;;;;;;;;;5069070;28;20462;-59
2021/05/12 12:49:04;;;;;;;13.50;12.23;;;;;;;;;;5062361;28;20291;-62
2021/05/12 12:51:34;;;;;;;14.40;12.27;;;;;;;;;;5063970;28;20474;-61
2021/05/12 12:53:59;;;;;;;16.10;13.03;;;;;;;;;;5069343;28;20378;-60
2021/05/12 12:56:25;;;;;;;15.13;13.63;;;;;;;;;;5061719;28;20622;-61
2021/05/12 12:59:12;;;;;;;13.53;11.90;;;;;;;;;;5034209;28;20248;-61
2021/05/12 13:01:38;;;;;;;20.20;15.23;;;;;;;;;;5050625;28;20545;-61
2021/05/12 13:04:20;;;;;;;18.80;14.03;;;;;;;;;;5053658;28;20513;-61
2021/05/12 13:07:03;;;;;;;15.57;13.90;;;;;;;;;;5054126;28;20456;-60
2021/05/12 13:09:29;;;;;;;17.70;14.00;;;;;;;;;;5053484;28;20479;-60
2021/05/12 13:11:56;;;;;;;13.97;12.47;;;;;;;;;;5054299;28;20448;-63
2021/05/12 13:14:21;;;;;;;16.23;12.73;;;;;;;;;;5056148;28;20294;-64
2021/05/12 13:16:47;;;;;;;14.80;13.27;;;;;;;;;;5055405;28;20969;-63
2021/05/12 13:19:14;;;;;;;14.83;13.30;;;;;;;;;;5056091;28;20220;-63
2021/05/12 13:21:54;;;;;;;12.13;10.70;;;;;;;;;;5055544;28;20811;-63
2021/05/12 13:24:29;;;;;;;15.17;10.33;;;;;;;;;;5056085;28;20454;-64
2021/05/12 13:26:58;;;;;;;13.07;11.40;;;;;;;;;;5052708;28;20923;-62
2021/05/12 13:29:24;;;;;;;10.37;9.37;;;;;;;;;;5053338;28;21003;-63
2021/05/12 13:31:50;;;;;;;10.93;9.83;;;;;;;;;;5055169;28;20609;-63
2021/05/12 13:34:18;;;;;;;10.27;9.00;;;;;;;;;;5055522;28;20302;-63
2021/05/12 13:36:46;;;;;;;10.13;9.13;;;;;;;;;;5042628;28;20916;-63
2021/05/12 13:39:11;;;;;;;9.93;9.03;;;;;;;;;;5055480;28;20468;-64
2021/05/12 13:41:37;;;;;;;9.60;8.27;;;;;;;;;;5055184;28;20807;-64
2021/05/12 13:44:02;;;;;;;8.83;7.70;;;;;;;;;;5055783;28;20247;-64
2021/05/12 13:46:28;;;;;;;9.73;8.50;;;;;;;;;;5055577;28;20217;-64
2021/05/12 13:48:54;;;;;;;8.63;7.93;;;;;;;;;;5055106;28;20213;-63
2021/05/12 13:51:20;;;;;;;7.63;7.03;;;;;;;;;;5055373;28;20225;-63
2021/05/12 13:54:02;;;;;;;8.57;7.77;;;;;;;;;;5055047;28;20456;-63
2021/05/12 13:56:35;;;;;;;8.70;7.13;;;;;;;;;;5055371;28;20528;-64
2021/05/12 13:59:18;;;;;;;6.70;6.10;;;;;;;;;;5055139;28;20440;-63
2021/05/12 14:01:52;;;;;;;7.23;6.53;;;;;;;;;;5054646;28;20456;-63
2021/05/12 14:04:17;;;;;;;7.27;6.57;;;;;;;;;;5055204;28;20463;-62
2021/05/12 14:06:43;;;;;;;6.70;6.20;;;;;;;;;;5054395;28;20456;-63
2021/05/12 14:09:18;;;;;;;6.27;5.67;;;;;;;;;;5055217;28;20221;-63
2021/05/12 14:14:29;;;;;;;6.97;6.37;;;;;;;;;;5054903;28;20795;-63
2021/05/12 14:19:22;;;;;;;7.40;6.70;;;;;;;;;;5054934;28;20454;-63
2021/05/12 14:21:48;;;;;;;8.53;7.40;;;;;;;;;;5054503;28;20531;-64
2021/05/12 14:24:13;;;;;;;9.03;6.93;;;;;;;;;;5054819;28;20217;-63
2021/05/12 14:26:38;;;;;;;7.47;6.77;;;;;;;;;;5050889;28;20221;-64
2021/05/12 14:29:06;;;;;;;6.60;6.10;;;;;;;;;;5033658;28;20600;-63
2021/05/12 14:31:31;;;;;;;8.30;7.50;;;;;;;;;;5034655;28;20252;-62
2021/05/12 14:33:56;;;;;;;9.17;7.47;;;;;;;;;;5034127;28;20527;-64
2021/05/12 14:36:22;;;;;;;8.77;7.90;;;;;;;;;;5034614;28;20291;-63
2021/05/12 14:38:48;;;;;;;8.43;7.73;;;;;;;;;;5050021;28;20275;-64
2021/05/12 14:41:13;;;;;;;8.47;7.67;;;;;;;;;;5054334;28;20479;-63
2021/05/12 14:43:39;;;;;;;8.30;7.50;;;;;;;;;;5054562;28;20252;-63